createdAt,value
2022-10-05T10:30:19.011Z,96577.22
2022-10-05T10:31:47.905Z,96574.28
2022-10-05T10:33:22.417Z,96568.16
2022-10-05T10:34:50.143Z,96582.31
2022-10-05T10:36:01.601Z,96569.69
2022-10-05T10:37:36.281Z,96578.03
2022-10-05T10:38:58.549Z,96577.19
2022-10-05T10:40:21.288Z,96580.72
2022-10-05T10:42:01.360Z,96572.63
2022-10-05T10:43:41.178Z,96582.66
2022-10-05T10:45:10.435Z,96577.63
2022-10-05T10:46:28.110Z,96574.66
2022-10-05T10:47:49.895Z,96576.53
2022-10-05T10:49:17.017Z,96577.63
2022-10-05T10:50:35.498Z,96576.19
2022-10-05T10:52:13.290Z,96576.09
2022-10-05T10:53:34.415Z,96567.50
2022-10-05T10:55:16.942Z,96572.78
2022-10-05T10:56:32.044Z,96568.97
2022-10-05T10:57:51.320Z,96572.03
2022-10-05T10:59:25.559Z,96563.53
2022-10-05T11:00:55.192Z,96565.97
2022-10-05T11:02:38.916Z,96565.31
2022-10-05T11:04:16.368Z,96563.69
2022-10-05T11:05:33.908Z,96560.75
2022-10-05T11:07:08.618Z,96555.66
2022-10-05T11:08:58.580Z,96550.16
2022-10-05T11:10:19.905Z,96552.00
2022-10-05T11:11:52.498Z,96550.94
2022-10-05T11:13:27.477Z,96549.16
2022-10-05T11:14:48.256Z,96543.63
2022-10-05T11:16:27.309Z,96543.34
2022-10-05T11:17:59.600Z,96554.78
2022-10-05T11:19:35.107Z,96545.66
2022-10-05T11:21:08.151Z,96546.19
2022-10-05T11:22:32.487Z,96544.28
2022-10-05T11:24:06.486Z,96537.31
2022-10-05T11:25:29.278Z,96541.69
2022-10-05T11:26:56.469Z,96534.78
2022-10-05T11:28:17.880Z,96530.47
2022-10-05T11:31:01.842Z,96540.41
2022-10-05T11:32:36.942Z,96534.34
2022-10-05T11:34:10.601Z,96537.00
2022-10-05T11:35:52.341Z,96527.28
2022-10-05T11:37:18.768Z,96527.19
2022-10-05T11:38:51.335Z,96526.25
2022-10-05T11:40:29.558Z,96518.34
2022-10-05T11:42:04.674Z,96514.81
2022-10-05T11:43:41.828Z,96520.63
2022-10-05T11:45:16.289Z,96513.59
2022-10-05T11:46:30.732Z,96510.38
2022-10-05T11:47:52.146Z,96512.38
2022-10-05T11:49:19.557Z,96515.84
2022-10-05T11:50:30.538Z,96518.09
2022-10-05T11:51:48.438Z,96515.16
2022-10-05T11:52:59.121Z,96514.69
2022-10-05T11:54:23.447Z,96516.13
2022-10-05T11:55:32.864Z,96513.19
2022-10-05T11:56:40.153Z,96511.81
2022-10-05T11:57:51.465Z,96515.34
2022-10-05T11:58:58.519Z,96512.66
2022-10-05T12:00:14.681Z,96509.28
2022-10-05T12:01:28.723Z,96501.41
2022-10-05T12:02:59.427Z,96497.84
2022-10-05T12:04:16.476Z,96496.19
2022-10-05T12:05:22.354Z,96497.59
2022-10-05T12:06:53.957Z,96501.84
2022-10-05T12:08:08.769Z,96503.16
2022-10-05T12:09:29.724Z,96502.56
2022-10-05T12:10:40.872Z,96493.78
2022-10-05T12:11:58.558Z,96489.59
2022-10-05T12:13:27.974Z,96494.03
2022-10-05T12:14:44.137Z,96484.31
2022-10-05T12:15:53.427Z,96486.81
2022-10-05T12:17:03.467Z,96496.63
2022-10-05T12:18:14.014Z,96494.63
2022-10-05T12:19:28.391Z,96486.09
2022-10-05T12:20:41.225Z,96480.69
2022-10-05T12:21:52.884Z,96486.16
2022-10-05T12:22:58.918Z,96485.63
2022-10-05T12:24:11.313Z,96491.28
2022-10-05T12:25:28.484Z,96484.69
2022-10-05T12:26:38.044Z,96491.56
2022-10-05T12:27:44.126Z,96490.81
2022-10-05T12:28:52.955Z,96479.47
2022-10-05T12:30:03.641Z,96484.66
2022-10-05T12:31:23.640Z,96488.31
2022-10-05T12:32:36.401Z,96467.38
2022-10-05T12:33:46.389Z,96481.25
2022-10-05T12:35:01.870Z,96485.84
2022-10-05T12:36:13.180Z,96483.56
2022-10-05T12:37:40.208Z,96469.34
2022-10-05T12:38:51.859Z,96473.84
2022-10-05T12:39:57.024Z,96471.91
2022-10-05T12:41:11.148Z,96472.31
2022-10-05T12:42:26.168Z,96472.31
2022-10-05T12:43:41.273Z,96466.78
2022-10-05T12:45:15.403Z,96456.41
2022-10-05T12:46:33.893Z,96455.81
2022-10-05T12:47:53.927Z,96459.66
2022-10-05T12:49:25.592Z,96468.34
2022-10-05T12:50:35.044Z,96463.03
2022-10-05T12:51:42.361Z,96460.50
2022-10-05T12:53:04.332Z,96472.75
2022-10-05T12:54:18.646Z,96454.84
2022-10-05T12:55:26.329Z,96467.34
2022-10-05T12:56:45.504Z,96462.88
2022-10-05T12:58:00.877Z,96464.91
2022-10-05T12:59:14.425Z,96457.66
2022-10-05T13:00:23.156Z,96469.47
2022-10-05T13:01:39.641Z,96466.03
2022-10-05T13:02:49.221Z,96461.59
2022-10-05T13:03:58.882Z,96460.41
2022-10-05T13:05:21.358Z,96460.84
2022-10-05T13:06:32.920Z,96458.63
2022-10-05T13:07:50.584Z,96464.66
2022-10-05T13:09:06.590Z,96462.50
2022-10-05T13:10:21.207Z,96451.63
2022-10-05T13:11:35.257Z,96459.84
2022-10-05T13:12:51.237Z,96457.91
2022-10-05T13:14:02.505Z,96454.03
2022-10-05T13:15:18.198Z,96452.03
2022-10-05T13:16:31.563Z,96451.56
2022-10-05T13:17:42.371Z,96452.19
2022-10-05T13:18:59.122Z,96454.34
2022-10-05T13:20:14.802Z,96443.69
2022-10-05T13:21:24.904Z,96447.81
2022-10-05T13:22:37.473Z,96453.47
2022-10-05T13:23:57.137Z,96454.94
2022-10-05T13:25:19.776Z,96443.88
2022-10-05T13:26:28.208Z,96451.28
2022-10-05T13:27:38.184Z,96448.97
2022-10-05T13:28:47.660Z,96451.25
2022-10-05T13:29:55.963Z,96447.91
2022-10-05T13:31:07.889Z,96441.31
2022-10-05T13:32:16.566Z,96451.22
2022-10-05T13:33:29.586Z,96444.00
2022-10-05T13:34:40.324Z,96449.53
2022-10-05T13:35:52.829Z,96445.97
2022-10-05T13:37:08.673Z,96447.47
2022-10-05T13:38:23.645Z,96444.69
2022-10-05T13:39:39.347Z,96442.78
2022-10-05T13:40:51.273Z,96442.47
2022-10-05T13:42:00.127Z,96441.78
2022-10-05T13:43:19.161Z,96449.53
2022-10-05T13:44:32.606Z,96438.53
2022-10-05T13:45:45.773Z,96431.91
2022-10-05T13:46:50.179Z,96443.03
2022-10-05T13:48:11.906Z,96439.81
2022-10-05T13:49:26.626Z,96448.13
2022-10-05T13:50:34.135Z,96433.00
2022-10-05T13:51:46.886Z,96438.28
2022-10-05T13:52:56.547Z,96439.84
2022-10-05T13:54:07.561Z,96437.06
2022-10-05T13:55:23.853Z,96441.56
2022-10-05T13:56:30.738Z,96425.56
2022-10-05T13:57:48.341Z,96434.22
2022-10-05T13:59:01.333Z,96440.69
2022-10-05T14:00:13.925Z,96432.72
2022-10-05T14:01:25.148Z,96438.31
2022-10-05T14:02:30.492Z,96434.59
2022-10-05T14:03:37.590Z,96432.13
2022-10-05T14:04:47.059Z,96439.06
2022-10-05T14:05:57.778Z,96432.28
2022-10-05T14:07:23.403Z,96420.81
2022-10-05T14:08:34.690Z,96419.03
2022-10-05T14:09:37.128Z,96428.69
2022-10-05T14:10:44.147Z,96421.59
2022-10-05T14:11:53.556Z,96415.03
2022-10-05T14:12:58.255Z,96425.25
2022-10-05T14:14:15.253Z,96418.44
2022-10-05T14:15:21.473Z,96419.38
2022-10-05T14:16:28.174Z,96419.09
2022-10-05T14:17:43.903Z,96420.50
2022-10-05T14:18:58.565Z,96426.94
2022-10-05T14:20:03.044Z,96418.19
2022-10-05T14:21:22.293Z,96419.97
2022-10-05T14:22:27.631Z,96413.72
2022-10-05T14:23:32.499Z,96417.53
2022-10-05T14:24:45.024Z,96408.59
2022-10-05T14:25:54.200Z,96411.59
2022-10-05T14:26:58.773Z,96414.94
2022-10-05T14:28:06.387Z,96416.97
2022-10-05T14:29:19.130Z,96419.56
2022-10-05T14:30:25.835Z,96417.47
2022-10-05T14:31:31.329Z,96420.31
2022-10-05T14:32:50.464Z,96413.63
2022-10-05T14:33:52.670Z,96422.63
2022-10-05T14:35:15.761Z,96420.78
2022-10-05T14:36:35.149Z,96409.03
2022-10-05T14:37:53.386Z,96410.22
2022-10-05T14:38:57.918Z,96409.28
2022-10-05T14:40:23.554Z,96404.09
2022-10-05T14:41:28.532Z,96412.31
2022-10-05T14:42:47.274Z,96411.53
2022-10-05T14:43:51.684Z,96400.88
2022-10-05T14:45:02.843Z,96410.75
2022-10-05T14:46:27.190Z,96410.78
2022-10-05T14:47:39.710Z,96403.50
2022-10-05T14:48:42.499Z,96407.19
2022-10-05T14:50:10.799Z,96404.94
2022-10-05T14:51:31.929Z,96409.75
2022-10-05T14:52:34.857Z,96403.97
2022-10-05T14:53:58.780Z,96404.94
2022-10-05T14:55:08.690Z,96401.78
2022-10-05T14:56:36.873Z,96396.16
2022-10-05T14:57:49.908Z,96398.44
2022-10-05T14:59:22.346Z,96406.31
2022-10-05T15:00:26.135Z,96400.88
2022-10-05T15:01:35.197Z,96396.22
2022-10-05T15:03:21.554Z,96389.06
2022-10-05T15:04:34.477Z,96401.19
2022-10-05T15:05:47.712Z,96393.72
2022-10-05T15:07:03.845Z,96397.41
2022-10-05T15:08:21.087Z,96401.78
2022-10-05T15:09:42.390Z,96394.56
2022-10-05T15:10:51.131Z,96397.34
2022-10-05T15:11:59.283Z,96388.25
2022-10-05T15:13:15.229Z,96389.47
2022-10-05T15:14:24.751Z,96394.97
2022-10-05T15:15:34.582Z,96394.75
2022-10-05T15:16:42.208Z,96393.47
2022-10-05T15:17:52.582Z,96394.53
2022-10-05T15:19:05.646Z,96396.69
2022-10-05T15:20:24.631Z,96390.81
2022-10-05T15:21:43.944Z,96395.38
2022-10-05T15:22:55.955Z,96392.16
2022-10-05T15:24:02.907Z,96398.19
2022-10-05T15:25:17.712Z,96398.41
2022-10-05T15:26:33.377Z,96393.69
2022-10-05T15:28:04.209Z,96398.66
2022-10-05T15:29:20.518Z,96394.47
2022-10-05T15:30:24.634Z,96397.25
2022-10-05T15:31:39.497Z,96399.34
2022-10-05T15:32:59.828Z,96406.03
2022-10-05T15:34:08.106Z,96400.25
2022-10-05T15:35:37.349Z,96407.66
2022-10-05T15:36:48.234Z,96412.00
2022-10-05T15:37:55.483Z,96402.06
2022-10-05T15:39:08.404Z,96398.94
2022-10-05T15:40:27.072Z,96399.41
2022-10-05T15:41:53.208Z,96399.94
2022-10-05T15:43:01.810Z,96406.56
2022-10-05T15:44:18.422Z,96404.69
2022-10-05T15:45:29.960Z,96406.44
2022-10-05T15:46:37.247Z,96408.38
2022-10-05T15:47:52.405Z,96399.00
2022-10-05T15:49:08.582Z,96405.25
2022-10-05T15:50:22.517Z,96410.53
2022-10-05T15:51:42.417Z,96409.91
2022-10-05T15:52:51.317Z,96411.03
2022-10-05T15:54:16.546Z,96406.06
2022-10-05T15:55:32.726Z,96409.84
2022-10-05T15:56:38.719Z,96406.75
2022-10-05T15:57:51.891Z,96405.44
2022-10-05T15:58:55.624Z,96410.94
2022-10-05T16:00:04.688Z,96415.41
2022-10-05T16:01:11.934Z,96411.41
2022-10-05T16:02:22.713Z,96417.59
2022-10-05T16:03:38.295Z,96415.63
2022-10-05T16:04:48.181Z,96422.38
2022-10-05T16:06:09.000Z,96422.41
2022-10-05T16:07:32.043Z,96423.34
2022-10-05T16:08:54.351Z,96422.81
2022-10-05T16:10:11.811Z,96427.63
2022-10-05T16:11:36.785Z,96432.34
2022-10-05T16:12:50.927Z,96432.41
2022-10-05T16:14:05.387Z,96435.34
2022-10-05T16:15:26.581Z,96427.41
2022-10-05T16:16:38.154Z,96433.63
2022-10-05T16:18:12.240Z,96434.81
2022-10-05T16:19:22.199Z,96435.44
2022-10-05T16:20:45.919Z,96431.66
2022-10-05T16:21:56.765Z,96441.63
2022-10-05T16:23:08.096Z,96442.00
2022-10-05T16:24:24.705Z,96436.19
2022-10-05T16:25:35.340Z,96437.16
2022-10-05T16:26:58.672Z,96429.78
2022-10-05T16:28:10.985Z,96442.84
2022-10-05T16:29:25.028Z,96436.19
2022-10-05T16:30:40.384Z,96444.09
2022-10-05T16:31:56.943Z,96437.00
2022-10-05T16:33:08.249Z,96446.41
2022-10-05T16:34:23.368Z,96441.38
2022-10-05T16:35:38.511Z,96455.53
2022-10-05T16:36:55.951Z,96446.59
2022-10-05T16:38:08.123Z,96457.78
2022-10-05T16:39:18.723Z,96446.19
2022-10-05T16:40:31.016Z,96452.66
2022-10-05T16:41:39.098Z,96448.31
2022-10-05T16:42:57.968Z,96454.44
2022-10-05T16:44:13.041Z,96453.88
2022-10-05T16:45:30.062Z,96465.06
2022-10-05T16:46:42.544Z,96468.72
2022-10-05T16:47:50.658Z,96459.84
2022-10-05T16:49:04.152Z,96474.09
2022-10-05T16:50:27.750Z,96473.31
2022-10-05T16:51:40.693Z,96469.06
2022-10-05T16:52:47.258Z,96475.66
2022-10-05T16:54:01.334Z,96475.56
2022-10-05T16:55:13.407Z,96475.59
2022-10-05T16:56:21.288Z,96470.50
2022-10-05T16:57:28.361Z,96478.00
2022-10-05T16:58:47.890Z,96476.81
2022-10-05T17:00:15.535Z,96483.25
2022-10-05T17:01:42.224Z,96485.44
2022-10-05T17:03:08.286Z,96487.81
2022-10-05T17:04:31.584Z,96486.75
2022-10-05T17:05:55.180Z,96486.03
2022-10-05T17:07:14.404Z,96488.28
2022-10-05T17:08:36.756Z,96489.50
2022-10-05T17:10:05.936Z,96493.53
2022-10-05T17:11:19.299Z,96494.25
2022-10-05T17:12:42.431Z,96496.66
2022-10-05T17:14:08.189Z,96497.63
2022-10-05T17:15:29.704Z,96502.03
2022-10-05T17:16:48.192Z,96503.34
2022-10-05T17:18:04.030Z,96497.84
2022-10-05T17:19:16.599Z,96495.72
2022-10-05T17:20:42.440Z,96502.38
2022-10-05T17:21:50.155Z,96511.47
2022-10-05T17:22:59.289Z,96507.66
2022-10-05T17:24:15.477Z,96509.06
2022-10-05T17:25:25.290Z,96513.00
2022-10-05T17:26:52.831Z,96511.22
2022-10-05T17:28:00.294Z,96517.16
2022-10-05T17:29:16.647Z,96513.81
2022-10-05T17:30:37.771Z,96523.59
2022-10-05T17:32:02.056Z,96514.47
2022-10-05T17:33:22.489Z,96528.00
2022-10-05T17:34:29.242Z,96526.69
2022-10-05T17:36:00.979Z,96523.16
2022-10-05T17:37:17.981Z,96522.00
2022-10-05T17:38:25.114Z,96520.69
2022-10-05T17:39:46.813Z,96528.47
2022-10-05T17:41:18.380Z,96529.19
2022-10-05T17:42:51.740Z,96526.75
2022-10-05T17:44:27.208Z,96524.75
2022-10-05T17:45:54.365Z,96524.72
2022-10-05T17:47:00.844Z,96526.81
2022-10-05T17:48:05.392Z,96535.03
2022-10-05T17:49:23.316Z,96536.09
2022-10-05T17:50:54.506Z,96532.00
2022-10-05T17:52:14.238Z,96538.03
2022-10-05T17:53:50.019Z,96533.03
2022-10-05T17:55:30.164Z,96538.06
2022-10-05T17:56:56.044Z,96533.91
2022-10-05T17:58:00.775Z,96534.84
2022-10-05T17:59:07.494Z,96542.38
2022-10-05T18:00:32.474Z,96538.41
2022-10-05T18:01:42.226Z,96548.34
2022-10-05T18:02:44.321Z,96543.31
2022-10-05T18:03:51.836Z,96535.75
2022-10-05T18:05:05.424Z,96536.19
2022-10-05T18:06:32.387Z,96542.16
2022-10-05T18:07:38.357Z,96536.59
2022-10-05T18:08:41.507Z,96543.09
2022-10-05T18:10:22.152Z,96541.03
2022-10-05T18:11:40.636Z,96546.19
2022-10-05T18:12:50.584Z,96542.69
2022-10-05T18:14:16.104Z,96550.06
2022-10-05T18:15:49.357Z,96545.66
2022-10-05T18:17:02.514Z,96547.94
2022-10-05T18:18:38.710Z,96548.75
2022-10-05T18:19:41.594Z,96550.22
2022-10-05T18:21:18.474Z,96555.78
2022-10-05T18:22:30.969Z,96550.56
2022-10-05T18:23:36.223Z,96550.09
2022-10-05T18:25:06.399Z,96565.50
2022-10-05T18:26:26.555Z,96557.53
2022-10-05T18:28:07.075Z,96568.50
2022-10-05T18:29:39.192Z,96561.31
2022-10-05T18:31:02.239Z,96563.19
2022-10-05T18:32:14.101Z,96565.44
2022-10-05T18:33:50.032Z,96565.03
2022-10-05T18:35:02.192Z,96564.00
2022-10-05T18:36:22.217Z,96571.00
